Time;durP1;ratioP1;P1;durP2;ratioP2;P2;SDS_P1;SDS_P2;PMS_P1;PMS_P2;Temp;Humidity;BMP_temperature;BMP_pressure;BME280_temperature;BME280_humidity;BME280_pressure;Samples;Min_cycle;Max_cycle;Signal;HPM_P1;HPM_P2
2022/03/13 00:02:13;;;;;;;24.98;17.77;;;;;;;6.86;76.05;101514.09;5005243;28;20301;-73
2022/03/13 00:04:39;;;;;;;23.95;17.40;;;;;;;6.85;75.98;101509.75;5005360;28;20041;-72
2022/03/13 00:07:09;;;;;;;25.80;17.88;;;;;;;6.86;76.22;101514.09;5007041;28;20049;-73
2022/03/13 00:09:35;;;;;;;24.77;18.17;;;;;;;6.85;76.12;101508.88;5005709;28;20045;-73
2022/03/13 00:12:07;;;;;;;25.02;18.10;;;;;;;6.84;76.11;101505.38;5003999;28;20030;-73
2022/03/13 00:14:35;;;;;;;26.35;18.60;;;;;;;6.84;76.21;101512.41;4991272;28;20053;-73
2022/03/13 00:17:00;;;;;;;27.05;19.25;;;;;;;6.82;76.50;101504.56;4991077;28;20342;-73
2022/03/13 00:19:26;;;;;;;25.92;18.55;;;;;;;6.82;76.36;101501.03;4995479;28;20504;-73
2022/03/13 00:21:53;;;;;;;26.33;17.95;;;;;;;6.81;76.47;101504.56;5006020;28;20520;-73
2022/03/13 00:24:20;;;;;;;27.27;19.25;;;;;;;6.80;76.31;101503.69;5006290;28;20422;-73
2022/03/13 00:26:47;;;;;;;24.95;18.40;;;;;;;6.78;76.21;101502.88;4995345;28;20041;-73
2022/03/13 00:29:13;;;;;;;25.63;17.55;;;;;;;6.77;76.68;101501.97;5006266;28;20084;-73
2022/03/13 00:31:39;;;;;;;27.48;19.25;;;;;;;6.76;76.59;101510.78;4979162;28;20824;-73
2022/03/13 00:34:05;;;;;;;30.05;18.88;;;;;;;6.74;76.80;101501.19;4994946;28;20030;-73
2022/03/13 00:36:30;;;;;;;27.00;17.73;;;;;;;6.74;77.01;101512.59;5005825;28;20089;-73
2022/03/13 00:38:56;;;;;;;26.63;18.90;;;;;;;6.73;77.04;101505.59;5005662;28;20223;-73
2022/03/13 00:41:22;;;;;;;26.85;17.85;;;;;;;6.73;76.87;101512.59;5005260;28;20034;-73
2022/03/13 00:43:48;;;;;;;24.30;17.60;;;;;;;6.72;76.66;101498.59;4989707;28;20393;-74
2022/03/13 00:46:13;;;;;;;27.20;18.05;;;;;;;6.72;76.82;101502.97;5004070;28;20408;-73
2022/03/13 00:48:41;;;;;;;29.25;18.23;;;;;;;6.73;76.92;101504.72;5005391;28;20045;-73
2022/03/13 00:51:10;;;;;;;26.33;18.60;;;;;;;6.72;77.12;101497.72;5004878;28;20045;-73
2022/03/13 00:53:37;;;;;;;26.30;18.67;;;;;;;6.70;76.96;101500.38;4988651;28;20052;-73
2022/03/13 00:56:03;;;;;;;25.17;17.90;;;;;;;6.69;77.03;101498.63;5005129;28;20034;-73
2022/03/13 00:58:28;;;;;;;29.90;18.52;;;;;;;6.68;77.13;101493.38;4994862;28;20413;-73
2022/03/13 01:00:54;;;;;;;27.67;18.75;;;;;;;6.66;77.31;101494.28;4976592;28;20046;-73
2022/03/13 01:03:35;;;;;;;26.95;18.38;;;;;;;6.65;77.48;101497.81;4993920;28;20064;-73
2022/03/13 01:06:00;;;;;;;26.35;18.33;;;;;;;6.64;77.18;101495.22;5005710;28;20033;-73
2022/03/13 01:08:27;;;;;;;28.48;18.23;;;;;;;6.63;77.50;101499.63;4986557;28;20052;-73
2022/03/13 01:10:53;;;;;;;27.17;19.60;;;;;;;6.61;77.47;101498.78;5004332;28;20044;-73
2022/03/13 01:13:19;;;;;;;26.35;18.25;;;;;;;6.61;77.56;101493.53;4988716;28;20057;-73
2022/03/13 01:15:46;;;;;;;24.27;18.13;;;;;;;6.61;77.52;101501.44;4988120;28;20491;-73
2022/03/13 01:18:11;;;;;;;23.67;17.70;;;;;;;6.62;77.51;101499.66;5005099;28;20104;-73
2022/03/13 01:20:37;;;;;;;27.02;18.88;;;;;;;6.63;77.82;101498.75;5004377;28;20068;-73
2022/03/13 01:23:02;;;;;;;25.23;18.25;;;;;;;6.64;77.56;101500.47;5005519;28;21477;-73
2022/03/13 01:25:28;;;;;;;26.90;18.48;;;;;;;6.64;77.45;101490.84;5004350;28;20064;-73
2022/03/13 01:27:54;;;;;;;26.65;19.02;;;;;;;6.64;77.73;101485.56;4985914;28;20497;-72
2022/03/13 01:30:19;;;;;;;29.45;18.98;;;;;;;6.65;77.81;101481.19;5004888;28;20377;-73
2022/03/13 01:32:51;;;;;;;25.80;18.10;;;;;;;6.66;77.40;101483.78;5005170;28;20702;-73
2022/03/13 01:35:22;;;;;;;24.77;17.88;;;;;;;6.68;77.85;101490.75;4986956;28;20053;-73
2022/03/13 01:37:48;;;;;;;26.70;18.15;;;;;;;6.70;77.76;101478.47;4986925;28;20049;-73
2022/03/13 01:40:19;;;;;;;27.35;17.70;;;;;;;6.72;77.90;101485.44;5004940;28;20733;-73
2022/03/13 01:42:47;;;;;;;27.25;18.65;;;;;;;6.73;78.16;101489.78;5004147;28;21618;-73
2022/03/13 01:45:17;;;;;;;27.77;17.83;;;;;;;6.76;77.69;101488.88;4986488;28;20125;-73
2022/03/13 01:47:43;;;;;;;25.52;17.65;;;;;;;6.78;78.07;101487.06;5001778;28;20632;-73
2022/03/13 01:50:09;;;;;;;25.73;17.65;;;;;;;6.80;77.75;101480.00;4987133;28;20045;-73
2022/03/13 01:52:36;;;;;;;25.30;17.60;;;;;;;6.82;77.65;101483.50;5004689;28;20459;-74
2022/03/13 01:55:02;;;;;;;23.42;17.23;;;;;;;6.83;77.83;101485.22;4989145;28;20045;-73
2022/03/13 01:57:28;;;;;;;26.23;18.23;;;;;;;6.85;78.11;101478.16;5005372;28;20034;-74
2022/03/13 01:59:55;;;;;;;26.83;18.45;;;;;;;6.85;78.12;101475.53;5003072;28;20029;-73
2022/03/13 02:02:22;;;;;;;27.45;18.73;;;;;;;6.86;78.30;101479.88;5004635;28;20048;-73
2022/03/13 02:04:55;;;;;;;28.35;18.67;;;;;;;6.87;78.19;101476.34;5002282;28;20116;-73
2022/03/13 02:07:21;;;;;;;27.55;18.17;;;;;;;6.88;78.08;101471.97;5004289;28;20099;-73
2022/03/13 02:09:48;;;;;;;27.25;18.13;;;;;;;6.88;78.03;101470.22;5003848;28;20042;-73
2022/03/13 02:12:13;;;;;;;24.30;17.63;;;;;;;6.90;78.61;101470.16;4989257;28;20073;-73
2022/03/13 02:14:39;;;;;;;25.92;17.80;;;;;;;6.91;78.03;101464.00;5002405;28;20235;-74
2022/03/13 02:17:04;;;;;;;31.63;18.65;;;;;;;6.91;78.10;101469.25;5002239;28;20037;-73
2022/03/13 02:19:30;;;;;;;27.42;18.42;;;;;;;6.90;78.11;101465.78;5004244;28;20045;-74
2022/03/13 02:21:58;;;;;;;26.75;18.95;;;;;;;6.88;78.28;101475.47;4985574;28;20108;-73
2022/03/13 02:24:25;;;;;;;26.10;17.92;;;;;;;6.87;78.26;101470.25;4985983;28;20133;-73
2022/03/13 02:26:55;;;;;;;26.00;18.30;;;;;;;6.86;78.23;101464.09;5003795;28;20038;-73
2022/03/13 02:29:21;;;;;;;25.48;18.13;;;;;;;6.84;78.34;101460.63;5002772;28;20041;-73
2022/03/13 02:31:46;;;;;;;27.50;19.30;;;;;;;6.84;78.41;101459.75;4985374;28;20037;-73
2022/03/13 02:34:14;;;;;;;27.55;19.50;;;;;;;6.81;78.46;101444.88;4983346;28;20048;-73
2022/03/13 02:36:42;;;;;;;25.45;17.75;;;;;;;6.80;78.57;101448.41;5000697;28;20033;-74
2022/03/13 02:39:10;;;;;;;30.27;18.98;;;;;;;6.78;78.72;101448.47;5004687;28;20069;-73
2022/03/13 02:41:35;;;;;;;28.50;18.63;;;;;;;6.78;78.65;101450.22;4985448;28;20036;-74
2022/03/13 02:44:01;;;;;;;25.45;18.45;;;;;;;6.78;78.53;101450.22;5001533;28;20054;-73
2022/03/13 02:46:48;;;;;;;25.55;17.98;;;;;;;6.77;78.97;101449.34;5004346;28;20045;-73
2022/03/13 02:49:18;;;;;;;22.98;17.17;;;;;;;6.77;78.46;101440.59;5004104;28;20052;-73
2022/03/13 02:51:45;;;;;;;26.85;17.65;;;;;;;6.77;78.88;101443.22;4988141;28;20030;-73
2022/03/13 02:54:11;;;;;;;23.27;17.05;;;;;;;6.77;78.94;101436.19;4988731;28;20037;-73
2022/03/13 02:56:37;;;;;;;22.92;17.23;;;;;;;6.78;78.66;101443.22;5001420;28;20331;-73
2022/03/13 02:59:02;;;;;;;25.50;16.98;;;;;;;6.81;78.99;101450.16;5001619;28;20504;-73
2022/03/13 03:01:28;;;;;;;23.38;16.80;;;;;;;6.82;78.65;101440.50;4985489;28;20052;-73
2022/03/13 03:03:57;;;;;;;24.77;17.63;;;;;;;6.83;78.51;101440.47;5004251;28;20524;-73
2022/03/13 03:06:24;;;;;;;23.42;17.35;;;;;;;6.85;78.86;101443.94;4984331;28;20710;-73
2022/03/13 03:08:51;;;;;;;28.10;17.40;;;;;;;6.84;78.83;101439.56;5003344;28;20076;-73
2022/03/13 03:11:16;;;;;;;26.40;17.95;;;;;;;6.84;78.69;101444.84;4986269;28;20038;-73
2022/03/13 03:13:42;;;;;;;26.63;18.50;;;;;;;6.84;78.79;101434.31;4995726;28;20033;-73
2022/03/13 03:16:07;;;;;;;25.75;17.90;;;;;;;6.85;78.78;101440.44;4988241;28;20034;-73
2022/03/13 03:18:33;;;;;;;23.85;17.45;;;;;;;6.86;78.62;101436.94;5005310;28;20050;-73
2022/03/13 03:20:59;;;;;;;26.10;17.70;;;;;;;6.86;78.94;101443.03;4996293;28;20063;-73
2022/03/13 03:23:24;;;;;;;23.52;17.20;;;;;;;6.88;79.01;101436.00;5007105;28;20128;-73
2022/03/13 03:25:50;;;;;;;26.08;17.98;;;;;;;6.88;79.11;101428.09;4989114;28;20026;-73
2022/03/13 03:28:17;;;;;;;26.75;18.75;;;;;;;6.90;79.10;101423.66;5006156;28;20387;-74
2022/03/13 03:30:43;;;;;;;26.30;18.02;;;;;;;6.90;79.13;101431.56;4972508;28;20119;-73
2022/03/13 03:33:08;;;;;;;26.35;18.52;;;;;;;6.89;78.92;101432.47;4989908;28;20176;-73
2022/03/13 03:35:34;;;;;;;28.70;18.60;;;;;;;6.90;79.02;101428.94;5006398;28;20481;-73
2022/03/13 03:38:01;;;;;;;27.88;18.20;;;;;;;6.90;79.09;101423.66;5006095;28;20370;-73
2022/03/13 03:40:28;;;;;;;28.90;17.88;;;;;;;6.91;78.78;101420.13;4979037;28;20121;-73
2022/03/13 03:43:03;;;;;;;23.65;17.00;;;;;;;6.91;78.85;101425.38;4980948;28;20165;-74
2022/03/13 03:45:30;;;;;;;23.35;16.20;;;;;;;6.92;78.66;101421.84;4989016;28;20029;-74
2022/03/13 03:47:56;;;;;;;26.00;16.38;;;;;;;6.93;78.93;101414.84;4990402;28;20128;-73
2022/03/13 03:50:21;;;;;;;24.55;17.30;;;;;;;6.93;78.90;101417.47;5005932;28;20041;-73
2022/03/13 03:52:47;;;;;;;25.27;17.25;;;;;;;6.95;78.52;101420.94;5007099;28;20034;-73
2022/03/13 03:55:14;;;;;;;23.02;15.65;;;;;;;6.95;78.91;101414.78;5006125;28;20038;-74
2022/03/13 03:57:40;;;;;;;23.98;16.83;;;;;;;6.95;78.88;101420.03;4986738;28;20045;-73
2022/03/13 04:00:08;;;;;;;26.02;17.52;;;;;;;6.95;78.82;101420.94;4988561;28;20046;-73
2022/03/13 04:02:34;;;;;;;22.40;16.67;;;;;;;6.94;78.83;101406.03;5003855;28;20037;-73
2022/03/13 04:05:00;;;;;;;23.35;17.08;;;;;;;6.95;78.88;101418.28;5004678;28;20026;-73
2022/03/13 04:07:26;;;;;;;24.70;16.55;;;;;;;6.96;78.66;101413.91;5001371;28;20407;-73
2022/03/13 04:09:52;;;;;;;25.83;16.98;;;;;;;6.96;78.78;101416.53;4984796;28;20038;-73
2022/03/13 04:12:18;;;;;;;25.02;17.00;;;;;;;6.96;78.64;101416.53;4987905;28;20498;-74
2022/03/13 04:14:44;;;;;;;23.25;16.55;;;;;;;6.97;78.62;101410.38;4992498;28;20440;-73
2022/03/13 04:17:09;;;;;;;24.40;17.17;;;;;;;6.95;78.66;101409.50;4987771;28;20029;-74
2022/03/13 04:19:35;;;;;;;26.70;17.45;;;;;;;6.94;78.96;101408.66;4986738;28;20046;-74
2022/03/13 04:22:01;;;;;;;21.60;16.33;;;;;;;6.95;78.76;101418.28;4986143;28;20030;-73
2022/03/13 04:24:29;;;;;;;24.75;16.67;;;;;;;6.93;78.88;101418.31;4984930;28;20037;-73
2022/03/13 04:26:56;;;;;;;26.00;17.58;;;;;;;6.93;78.99;101415.69;4986670;28;21368;-73
2022/03/13 04:29:23;;;;;;;24.15;16.85;;;;;;;6.92;78.68;101415.75;4986488;28;20545;-74
2022/03/13 04:31:50;;;;;;;24.50;17.05;;;;;;;6.92;78.85;101421.84;4987302;28;20029;-73
2022/03/13 04:34:16;;;;;;;23.67;16.58;;;;;;;6.92;78.76;101427.13;4984361;28;20488;-74
2022/03/13 04:36:42;;;;;;;23.52;17.00;;;;;;;6.91;78.85;101427.13;4986251;28;20709;-74
2022/03/13 04:39:08;;;;;;;24.40;17.60;;;;;;;6.90;78.59;101428.94;4986817;28;20616;-73
2022/03/13 04:41:34;;;;;;;27.67;17.23;;;;;;;6.89;78.86;101431.59;4973930;28;20453;-73
2022/03/13 04:44:00;;;;;;;24.63;17.83;;;;;;;6.87;78.80;101442.13;4984758;28;20048;-73
2022/03/13 04:46:26;;;;;;;23.38;17.13;;;;;;;6.85;78.65;101435.16;4984588;28;20030;-74
2022/03/13 04:48:53;;;;;;;24.00;16.63;;;;;;;6.83;79.04;101445.75;4986641;28;20033;-73
2022/03/13 04:51:19;;;;;;;23.90;17.80;;;;;;;6.81;79.02;101437.00;4986516;28;20040;-73
2022/03/13 04:53:45;;;;;;;29.63;18.27;;;;;;;6.78;78.94;101434.44;4986486;28;20650;-73
2022/03/13 04:56:11;;;;;;;26.25;17.92;;;;;;;6.76;78.83;101442.34;4985917;28;20034;-73
2022/03/13 04:58:37;;;;;;;23.45;17.30;;;;;;;6.74;79.14;101438.00;4985384;28;20057;-73
2022/03/13 05:01:02;;;;;;;26.88;18.05;;;;;;;6.72;79.14;101445.09;4985704;28;20504;-74
2022/03/13 05:03:31;;;;;;;27.60;19.02;;;;;;;6.70;79.23;101442.47;4985990;28;20599;-74
2022/03/13 05:05:57;;;;;;;27.80;18.48;;;;;;;6.68;79.01;101443.41;4983256;28;20057;-74
2022/03/13 05:08:23;;;;;;;23.63;17.60;;;;;;;6.67;79.16;101447.81;4983950;28;20054;-74
2022/03/13 05:10:48;;;;;;;27.70;18.55;;;;;;;6.66;79.36;101444.28;4970490;28;20042;-74
2022/03/13 05:13:16;;;;;;;30.88;18.33;;;;;;;6.66;78.95;101441.66;4984145;28;20669;-74
2022/03/13 05:15:43;;;;;;;27.13;18.30;;;;;;;6.67;79.43;101447.81;4984229;28;20034;-74
2022/03/13 05:18:09;;;;;;;28.05;19.15;;;;;;;6.65;78.98;101441.72;4967367;28;20555;-74
2022/03/13 05:20:35;;;;;;;26.83;18.27;;;;;;;6.65;79.05;101445.19;4983512;28;20034;-74
2022/03/13 05:23:05;;;;;;;25.30;18.00;;;;;;;6.66;79.21;101441.66;4966431;28;20477;-73
2022/03/13 05:25:32;;;;;;;27.00;18.05;;;;;;;6.66;78.68;101446.94;4982428;28;20026;-74
2022/03/13 05:27:58;;;;;;;25.48;18.50;;;;;;;6.68;78.95;101440.75;4986203;28;20065;-74
2022/03/13 05:30:24;;;;;;;25.65;17.92;;;;;;;6.66;78.90;101433.78;4985141;28;20144;-74
2022/03/13 05:32:50;;;;;;;32.45;18.63;;;;;;;6.66;78.79;101438.19;4985081;28;20584;-74
2022/03/13 05:35:16;;;;;;;26.50;17.77;;;;;;;6.66;78.65;101446.94;4985001;28;20521;-74
2022/03/13 05:37:42;;;;;;;26.55;18.35;;;;;;;6.67;78.54;101437.28;4986160;28;20072;-74
2022/03/13 05:40:12;;;;;;;28.55;18.77;;;;;;;6.68;78.21;101438.13;4985549;28;20328;-74
2022/03/13 05:42:37;;;;;;;26.80;18.80;;;;;;;6.70;78.54;101436.34;4985918;28;20682;-74
2022/03/13 05:45:04;;;;;;;28.55;19.38;;;;;;;6.69;78.59;101439.91;4982734;28;20045;-74
2022/03/13 05:47:30;;;;;;;28.58;18.40;;;;;;;6.70;78.14;101441.63;4993421;28;20038;-74
2022/03/13 05:49:55;;;;;;;27.35;18.08;;;;;;;6.69;78.22;101439.91;4958659;28;20046;-74
2022/03/13 05:52:21;;;;;;;27.98;18.88;;;;;;;6.70;78.33;101439.00;4985056;28;20557;-74
2022/03/13 05:54:46;;;;;;;27.88;18.33;;;;;;;6.70;78.14;101433.72;4984450;28;20026;-74
2022/03/13 05:57:12;;;;;;;27.48;18.42;;;;;;;6.69;78.40;101432.00;4984915;28;20083;-74
2022/03/13 05:59:38;;;;;;;27.60;19.02;;;;;;;6.70;78.32;101441.63;5001853;28;20454;-74
2022/03/13 06:02:07;;;;;;;27.42;18.92;;;;;;;6.69;78.59;101437.25;4985730;28;20037;-74
2022/03/13 06:04:35;;;;;;;30.65;18.83;;;;;;;6.69;78.69;101443.38;4986658;28;20519;-74
2022/03/13 06:07:02;;;;;;;30.45;18.75;;;;;;;6.70;78.57;101434.56;4971316;28;20416;-73
2022/03/13 06:09:27;;;;;;;26.83;18.60;;;;;;;6.69;78.17;101434.63;4988223;28;20254;-74
2022/03/13 06:11:53;;;;;;;29.23;19.65;;;;;;;6.72;78.29;101434.56;4984309;28;20042;-74
2022/03/13 06:14:19;;;;;;;27.23;18.88;;;;;;;6.71;78.20;101435.47;4969264;28;20457;-74
2022/03/13 06:16:45;;;;;;;26.75;18.38;;;;;;;6.71;78.36;101440.72;4985805;28;20770;-74
2022/03/13 06:19:10;;;;;;;25.70;18.77;;;;;;;6.71;78.42;101440.72;4984375;28;20034;-74
2022/03/13 06:21:37;;;;;;;25.77;18.45;;;;;;;6.70;78.54;101441.63;4982831;28;20092;-74
2022/03/13 06:24:03;;;;;;;28.33;18.27;;;;;;;6.70;78.50;101446.88;4998722;28;20041;-74
2022/03/13 06:26:28;;;;;;;27.08;19.23;;;;;;;6.69;78.19;101453.91;4985243;28;20025;-74
2022/03/13 06:28:54;;;;;;;27.52;19.55;;;;;;;6.69;78.19;101463.56;4983071;28;20517;-74
2022/03/13 06:31:20;;;;;;;27.20;19.13;;;;;;;6.68;78.39;101454.81;4984586;28;20472;-74
2022/03/13 06:33:45;;;;;;;30.77;18.92;;;;;;;6.67;78.34;101458.34;4984907;28;20030;-74
2022/03/13 06:36:11;;;;;;;27.35;18.38;;;;;;;6.67;78.40;101453.06;4981946;28;20244;-74
2022/03/13 06:38:37;;;;;;;24.13;17.50;;;;;;;6.68;78.12;101453.91;5000430;28;20126;-74
2022/03/13 06:41:03;;;;;;;26.63;18.98;;;;;;;6.68;77.78;101440.75;4983790;28;20042;-74
2022/03/13 06:43:29;;;;;;;25.45;18.05;;;;;;;6.71;77.99;101443.34;5001344;28;20030;-73
2022/03/13 06:45:55;;;;;;;25.58;18.13;;;;;;;6.71;77.79;101448.63;4989718;28;20112;-74
2022/03/13 06:48:21;;;;;;;26.42;18.33;;;;;;;6.71;78.01;101454.72;4975412;28;20033;-74
2022/03/13 06:50:48;;;;;;;24.90;17.85;;;;;;;6.72;77.58;101460.88;4985631;28;20030;-74
2022/03/13 06:53:14;;;;;;;24.50;18.10;;;;;;;6.72;77.67;101456.50;4967352;28;20129;-74
2022/03/13 06:55:40;;;;;;;24.38;17.90;;;;;;;6.73;77.54;101458.22;4983770;28;20030;-75
2022/03/13 06:58:05;;;;;;;24.60;17.40;;;;;;;6.74;77.58;101465.22;4968555;28;20117;-73
2022/03/13 07:00:31;;;;;;;26.27;18.27;;;;;;;6.76;77.16;101465.19;4990763;28;20113;-74
2022/03/13 07:02:57;;;;;;;22.88;16.83;;;;;;;6.77;77.23;101467.78;4985639;28;20061;-74
2022/03/13 07:05:24;;;;;;;25.35;17.35;;;;;;;6.80;77.35;101466.84;4985405;28;20038;-74
2022/03/13 07:07:49;;;;;;;24.42;17.73;;;;;;;6.82;76.89;101465.06;5000115;28;20852;-74
2022/03/13 07:10:15;;;;;;;27.58;17.65;;;;;;;6.84;76.92;101471.16;4982910;28;20041;-74
2022/03/13 07:12:43;;;;;;;22.13;16.63;;;;;;;6.87;77.01;101467.59;4982964;28;20103;-74
2022/03/13 07:15:13;;;;;;;25.27;17.80;;;;;;;6.90;76.88;101470.16;4968906;28;20287;-74
2022/03/13 07:17:41;;;;;;;25.90;17.67;;;;;;;6.92;76.98;101474.50;4982909;28;20076;-74
2022/03/13 07:20:07;;;;;;;23.63;16.98;;;;;;;6.93;76.75;101467.50;4983157;28;20065;-74
2022/03/13 07:22:33;;;;;;;23.80;16.35;;;;;;;6.94;76.67;101469.22;4974214;28;20022;-74
2022/03/13 07:24:59;;;;;;;26.08;17.33;;;;;;;6.97;76.47;101471.78;4983038;28;21823;-74
2022/03/13 07:27:24;;;;;;;23.77;16.65;;;;;;;6.99;76.57;101479.66;4985170;28;20283;-74
2022/03/13 07:29:51;;;;;;;25.05;17.13;;;;;;;7.02;76.66;101479.56;4985865;28;20752;-73
2022/03/13 07:32:17;;;;;;;25.17;16.67;;;;;;;7.04;76.12;101483.91;4985789;28;20034;-74
2022/03/13 07:34:42;;;;;;;22.98;16.65;;;;;;;7.06;76.15;101491.78;4982750;28;20452;-74
2022/03/13 07:37:10;;;;;;;26.15;16.88;;;;;;;7.07;75.86;101480.34;4985047;28;20045;-74
2022/03/13 07:39:37;;;;;;;23.23;15.93;;;;;;;7.07;75.99;101483.88;4984513;28;20124;-74
2022/03/13 07:42:03;;;;;;;23.77;16.65;;;;;;;7.07;75.65;101478.59;4982945;28;20550;-74
2022/03/13 07:44:29;;;;;;;22.38;15.75;;;;;;;7.08;75.78;101479.44;4985710;28;20034;-74
2022/03/13 07:46:54;;;;;;;23.58;16.50;;;;;;;7.09;75.76;101475.06;4985463;28;20033;-74
2022/03/13 07:49:20;;;;;;;23.52;16.73;;;;;;;7.11;75.54;101475.88;4985734;28;20073;-74
2022/03/13 07:51:46;;;;;;;26.17;16.88;;;;;;;7.12;75.55;101481.13;4984298;28;20397;-74
2022/03/13 07:54:13;;;;;;;23.90;15.93;;;;;;;7.14;75.29;101483.75;4984587;28;20750;-74
2022/03/13 07:56:38;;;;;;;23.23;16.20;;;;;;;7.15;75.10;101475.78;4998811;28;20135;-74
2022/03/13 07:59:04;;;;;;;23.98;16.52;;;;;;;7.15;75.22;101480.22;5002787;28;20038;-74
2022/03/13 08:01:29;;;;;;;24.27;16.55;;;;;;;7.16;74.76;101481.94;4989604;28;20092;-74
2022/03/13 08:03:55;;;;;;;22.08;16.38;;;;;;;7.16;74.99;101481.94;5002092;28;20847;-73
2022/03/13 08:06:20;;;;;;;24.02;16.88;;;;;;;7.16;74.50;101482.81;4985046;28;20068;-75
2022/03/13 08:08:46;;;;;;;26.17;16.52;;;;;;;7.17;74.56;101487.19;5004596;28;20049;-73
2022/03/13 08:11:11;;;;;;;21.10;16.00;;;;;;;7.20;74.52;101479.19;4988882;28;20037;-73
2022/03/13 08:13:37;;;;;;;23.58;16.27;;;;;;;7.22;74.35;101483.56;5006746;28;20400;-74
2022/03/13 08:16:02;;;;;;;24.70;16.30;;;;;;;7.22;74.46;101481.81;4980271;28;20119;-74
2022/03/13 08:18:29;;;;;;;21.25;16.13;;;;;;;7.25;74.52;101478.25;5006971;28;20115;-74
2022/03/13 08:20:56;;;;;;;24.52;16.92;;;;;;;7.28;73.89;101475.53;4985614;28;20104;-74
2022/03/13 08:23:22;;;;;;;21.70;16.25;;;;;;;7.32;74.16;101479.84;4991818;28;20026;-74
2022/03/13 08:25:47;;;;;;;24.00;16.17;;;;;;;7.36;73.91;101473.63;5006299;28;20453;-74
2022/03/13 08:28:13;;;;;;;22.13;15.82;;;;;;;7.41;73.80;101484.91;5008034;28;20116;-74
2022/03/13 08:30:38;;;;;;;24.92;16.83;;;;;;;7.44;73.71;101484.84;4988392;28;20033;-74
2022/03/13 08:33:05;;;;;;;23.65;15.55;;;;;;;7.51;73.20;101488.22;5006865;28;20037;-74
2022/03/13 08:35:31;;;;;;;19.92;15.20;;;;;;;7.57;73.14;101497.75;5008207;28;20153;-74
2022/03/13 08:37:57;;;;;;;24.50;16.33;;;;;;;7.64;73.09;101485.31;5006934;28;20385;-74
2022/03/13 08:40:27;;;;;;;21.67;15.07;;;;;;;7.72;72.67;101492.13;5006799;28;20176;-73
2022/03/13 08:42:53;;;;;;;23.17;15.77;;;;;;;7.83;72.91;101488.38;5007088;28;20068;-75
2022/03/13 08:45:19;;;;;;;24.50;16.27;;;;;;;7.92;72.27;101488.16;5007846;28;20026;-74
2022/03/13 08:47:55;;;;;;;22.75;15.25;;;;;;;8.02;72.41;101494.09;5006321;28;20026;-74
2022/03/13 08:50:24;;;;;;;20.40;14.75;;;;;;;8.10;72.20;101486.84;4991261;28;20120;-74
2022/03/13 08:52:52;;;;;;;21.33;15.95;;;;;;;8.19;71.71;101485.75;5008138;28;20029;-74
2022/03/13 08:55:18;;;;;;;20.58;15.27;;;;;;;8.26;71.43;101487.34;5006985;28;20033;-74
2022/03/13 08:57:45;;;;;;;21.70;15.15;;;;;;;8.34;71.31;101483.63;4995314;28;20065;-75
2022/03/13 09:00:16;;;;;;;22.92;16.08;;;;;;;8.40;70.95;101489.59;5007954;28;22106;-74
2022/03/13 09:02:42;;;;;;;23.08;15.68;;;;;;;8.48;70.87;101480.59;5004619;28;20038;-75
2022/03/13 09:05:08;;;;;;;21.63;15.38;;;;;;;8.53;70.49;101473.47;5006645;28;20745;-75
2022/03/13 09:07:34;;;;;;;21.45;15.38;;;;;;;8.59;70.41;101483.00;5005934;28;20054;-75
2022/03/13 09:10:00;;;;;;;20.92;14.77;;;;;;;8.64;70.24;101481.97;4995176;28;20061;-75
2022/03/13 09:12:26;;;;;;;21.50;14.60;;;;;;;8.71;70.24;101477.38;5005192;28;20041;-75
2022/03/13 09:14:51;;;;;;;19.10;14.95;;;;;;;8.77;70.19;101477.22;5007379;28;20443;-74
2022/03/13 09:17:17;;;;;;;22.35;15.75;;;;;;;8.83;69.78;101470.91;5004703;28;20033;-75
2022/03/13 09:19:43;;;;;;;23.13;16.00;;;;;;;8.90;69.65;101475.13;5006652;28;20037;-75
2022/03/13 09:22:30;;;;;;;20.25;14.68;;;;;;;9.00;69.19;101474.84;5004312;28;20037;-76
2022/03/13 09:25:00;;;;;;;21.95;15.00;;;;;;;9.12;68.95;101477.13;4978800;28;20061;-75
2022/03/13 09:27:30;;;;;;;21.75;15.32;;;;;;;9.23;68.65;101471.53;4988832;28;20608;-76
2022/03/13 09:29:57;;;;;;;21.08;14.60;;;;;;;9.32;68.59;101471.25;4990427;28;20054;-74
2022/03/13 09:32:24;;;;;;;21.95;14.68;;;;;;;9.41;67.92;101472.75;5004345;28;20079;-75
2022/03/13 09:34:49;;;;;;;19.67;14.40;;;;;;;9.49;67.58;101480.47;4989193;28;20021;-75
2022/03/13 09:37:16;;;;;;;22.20;14.95;;;;;;;9.57;66.79;101474.91;4990167;28;20380;-75
2022/03/13 09:39:42;;;;;;;18.83;14.35;;;;;;;9.64;66.79;101474.69;4987584;28;20435;-75
2022/03/13 09:42:07;;;;;;;21.35;14.68;;;;;;;9.73;66.55;101475.31;5004922;28;20037;-76
2022/03/13 09:44:33;;;;;;;19.13;14.35;;;;;;;9.80;65.71;101473.34;5005359;28;20460;-75
2022/03/13 09:46:59;;;;;;;19.60;14.63;;;;;;;9.88;65.70;101474.81;4987267;28;20110;-75
2022/03/13 09:49:24;;;;;;;21.00;14.45;;;;;;;9.97;65.19;101476.28;4986448;28;20037;-74
2022/03/13 09:51:50;;;;;;;19.70;14.50;;;;;;;10.05;64.96;101479.56;4993754;28;21274;-74
2022/03/13 09:54:16;;;;;;;18.40;13.45;;;;;;;10.13;64.60;101471.34;5003790;28;20056;-76
2022/03/13 09:56:41;;;;;;;22.27;14.73;;;;;;;10.22;64.31;101477.25;5002915;28;20489;-75
2022/03/13 09:59:07;;;;;;;21.17;13.88;;;;;;;10.33;63.83;101477.75;5005547;28;20496;-76
2022/03/13 10:01:33;;;;;;;21.27;14.65;;;;;;;10.40;63.53;101479.28;4985629;28;20039;-75
2022/03/13 10:03:59;;;;;;;18.80;13.75;;;;;;;10.50;63.21;101468.41;5002950;28;20623;-76
2022/03/13 10:06:26;;;;;;;21.67;14.20;;;;;;;10.59;62.78;101460.13;4986737;28;20460;-76
2022/03/13 10:08:51;;;;;;;19.08;13.70;;;;;;;10.66;62.37;101451.03;5004375;28;20041;-76
2022/03/13 10:11:30;;;;;;;18.92;14.30;;;;;;;10.76;62.17;101459.53;5004287;28;20052;-76
2022/03/13 10:14:05;;;;;;;20.23;14.25;;;;;;;10.85;62.14;101459.19;5004313;28;20120;-76
2022/03/13 10:16:36;;;;;;;18.98;14.02;;;;;;;10.94;62.31;101447.38;4987361;28;20029;-75
2022/03/13 10:19:20;;;;;;;18.65;14.00;;;;;;;11.04;62.03;101441.72;5004589;28;20033;-75
2022/03/13 10:22:08;;;;;;;19.05;14.27;;;;;;;11.16;61.99;101448.38;5003443;28;20030;-76
2022/03/13 10:24:45;;;;;;;20.15;14.77;;;;;;;11.25;62.30;101445.34;4988348;28;20048;-75
2022/03/13 10:27:16;;;;;;;19.83;14.07;;;;;;;11.35;62.10;101443.22;5006428;28;20037;-74
2022/03/13 10:29:42;;;;;;;19.58;14.23;;;;;;;11.44;62.32;101449.94;5002413;28;20101;-74
2022/03/13 10:32:09;;;;;;;19.48;15.32;;;;;;;11.50;61.77;101442.59;5005175;28;20047;-75
2022/03/13 10:34:35;;;;;;;24.30;14.93;;;;;;;11.57;61.32;101437.03;5006849;28;20411;-75
2022/03/13 10:37:02;;;;;;;19.20;15.05;;;;;;;11.64;61.36;101427.91;5004607;28;20670;-75
2022/03/13 10:39:28;;;;;;;18.60;14.10;;;;;;;11.74;61.39;101431.94;5004996;28;20047;-75
2022/03/13 10:41:59;;;;;;;22.38;14.70;;;;;;;11.85;61.32;101418.22;4987175;28;20350;-76
2022/03/13 10:44:25;;;;;;;20.42;13.90;;;;;;;11.91;61.33;101417.97;4970871;28;20060;-75
2022/03/13 10:46:56;;;;;;;20.77;14.43;;;;;;;11.97;60.92;101416.84;5005898;28;20529;-75
2022/03/13 10:49:36;;;;;;;23.20;15.63;;;;;;;12.01;60.65;101425.53;5008917;28;20025;-76
2022/03/13 10:52:22;;;;;;;21.20;15.25;;;;;;;12.02;60.55;101421.94;5006163;28;20044;-76
2022/03/13 10:54:48;;;;;;;21.70;14.40;;;;;;;12.03;60.52;101423.66;5004748;28;20540;-75
2022/03/13 10:57:14;;;;;;;18.27;13.90;;;;;;;12.07;60.87;101420.88;5005899;28;20029;-75
2022/03/13 10:59:41;;;;;;;21.75;15.27;;;;;;;12.12;60.62;101425.09;5005965;28;20044;-75
2022/03/13 11:02:17;;;;;;;19.85;15.32;;;;;;;12.15;60.57;101414.38;5007574;28;20049;-75
2022/03/13 11:04:54;;;;;;;19.65;14.82;;;;;;;12.16;60.23;101410.78;4988779;28;20104;-75
2022/03/13 11:07:21;;;;;;;22.33;15.32;;;;;;;12.16;60.28;101406.31;5007223;28;20072;-75
2022/03/13 11:09:47;;;;;;;21.98;15.80;;;;;;;12.20;60.37;101404.44;4988899;28;20075;-75
2022/03/13 11:12:20;;;;;;;20.48;15.52;;;;;;;12.25;60.30;101399.75;4999459;28;20124;-75
2022/03/13 11:14:54;;;;;;;21.02;16.10;;;;;;;12.29;60.57;101390.75;5003823;28;20033;-75
2022/03/13 11:17:22;;;;;;;21.33;15.38;;;;;;;12.32;60.31;101379.13;5010010;28;20608;-76